• Join FlightAware (Why Join?)
  • Login
  • US Flag 
11:14AM EDT


 

Airport Tracker/Info


-or-


 

Live Flight TrackerFlight Track Log ✈ EJA941 ✈ 03-May-2013 ✈ KSFO - KIAH

Flight Track Log - Related Links

Times and Time Zones

All times are in EDT time to prevent confusion due to time zone crossing. See the EJA941 flight status page for this flight to view local times or setup timezone preferences in your user account.

Time Position Orientation Groundspeed Altitude Reporting Facility
EDT Latitude Longitude Course Direction KTS MPH feet Rate Location/Type
08:16PM 37.6333 -122.4167 288° West 168 193 1,000  Level Northern Cal TRACON
08:17PM 37.6500 -122.4833 288° West 226 260 3,400 2,700 Climbing Northern Cal TRACON
08:18PM 37.5667 -122.4833 180° South 287 330 6,400 3,120 Climbing Northern Cal TRACON
08:19PM 37.5167 -122.4333 142° Southeast 293 337 9,700 2,280 Climbing Northern Cal TRACON
08:20PM 37.4456 -122.3244 129° Southeast 311 358 11,600 1,260 Climbing Oakland Center
08:21PM 37.3831 -122.2283 129° Southeast 351 404 12,600 1,260 Climbing Oakland Center
08:22PM 37.3153 -122.1247 129° Southeast 380 437 14,200 1,260 Climbing Oakland Center
08:23PM 37.2453 -122.0208 130° Southeast 390 449 15,300 1,260 Climbing Oakland Center
08:24PM 37.1750 -121.9131 129° Southeast 398 458 16,800 1,320 Climbing Oakland Center
08:25PM 37.1006 -121.8025 130° Southeast 403 464 18,100 1,200 Climbing Oakland Center
08:26PM 37.0253 -121.6994 132° Southeast 410 472 19,300 1,140 Climbing Oakland Center
08:27PM 36.9500 -121.5844 129° Southeast 424 488 20,500 1,440 Climbing Oakland Center
08:28PM 36.8592 -121.4425 129° Southeast 434 499 22,300 1,560 Climbing Oakland Center
08:29PM 36.7808 -121.3325 132° Southeast 440 506 23,700 1,260 Climbing Oakland Center
08:30PM 36.6994 -121.2164 131° Southeast 442 509 25,000 1,260 Climbing Oakland Center
08:31PM 36.6169 -121.0939 130° Southeast 458 527 26,300 1,200 Climbing Oakland Center
08:32PM 36.5325 -120.9692 130° Southeast 468 539 27,500 1,200 Climbing Oakland Center
08:33PM 36.4461 -120.8436 131° Southeast 475 547 28,800 1,200 Climbing Oakland Center
08:34PM 36.3600 -120.7119 129° Southeast 488 562 30,000 1,200 Climbing Oakland Center
08:36PM 36.2672 -120.5847 132° Southeast 493 567 31,300 1,740 Climbing Oakland Center
08:37PM 36.1592 -120.4250 130° Southeast 509 586 33,600 1,980 Climbing Oakland Center
08:38PM 36.0697 -120.2969 131° Southeast 493 567 35,400 1,680 Climbing Oakland Center
08:39PM 35.9819 -120.1767 132° Southeast 466 536 37,100 1,140 Climbing Oakland Center
08:41PM 35.8003 -119.9178 131° Southeast 496 571 38,900 600 Climbing Oakland Center
08:42PM 35.7050 -119.7828 131° Southeast 516 594 39,000  Climbing Oakland Center
08:43PM 35.6086 -119.6483 131° Southeast 521 600 38,900  Descending Oakland Center
08:44PM 35.5119 -119.5122 131° Southeast 525 604 39,000  Climbing Oakland Center
08:45PM 35.3969 -119.3511 131° Southeast 522 601 39,000 120 Level Los Angeles Center
08:46PM 35.3025 -119.2167 131° Southeast 520 598 39,300 480 Climbing Los Angeles Center
08:47PM 35.2397 -119.0608 116° Southeast 508 585 40,100 780 Climbing Los Angeles Center
08:48PM 35.1836 -118.9022 113° Southeast 506 582 41,000 420 Climbing Los Angeles Center
08:49PM 35.1117 -118.7117 115° Southeast 513 590 41,000  Level Los Angeles Center
08:50PM 35.0544 -118.5497 113° Southeast 518 596 41,000  Level Los Angeles Center
08:51PM 34.9947 -118.3861 114° Southeast 523 602 41,000  Level Los Angeles Center
08:52PM 34.9350 -118.2253 114° Southeast 522 601 41,000  Level Los Angeles Center
08:53PM 34.8761 -118.0653 114° Southeast 524 603 41,000  Level Los Angeles Center
08:54PM 34.8172 -117.9047 114° Southeast 525 604 41,000  Level Los Angeles Center
08:55PM 34.7464 -117.7139 114° Southeast 525 604 41,000  Level Los Angeles Center
08:56PM 34.6864 -117.5550 115° Southeast 527 606 41,000  Level Los Angeles Center
08:57PM 34.6269 -117.3953 114° Southeast 525 604 41,000  Level Los Angeles Center
08:58PM 34.5664 -117.2350 115° Southeast 527 606 41,000  Level Los Angeles Center
08:59PM 34.5047 -117.0744 115° Southeast 528 608 41,000  Level Los Angeles Center
09:00PM 34.4319 -116.8831 115° Southeast 524 603 41,000  Level Los Angeles Center
09:01PM 34.3708 -116.7194 114° Southeast 534 615 41,000  Level Los Angeles Center
09:02PM 34.3094 -116.5575 115° Southeast 535 616 41,000  Level Los Angeles Center
09:03PM 34.2481 -116.3958 115° Southeast 532 612 41,000  Level Los Angeles Center
09:05PM 34.1853 -116.2375 116° Southeast 526 605 41,000  Level Los Angeles Center
09:06PM 34.1147 -116.0586 115° Southeast 531 611 41,000  Level Los Angeles Center
09:07PM 34.0536 -115.9031 115° Southeast 518 596 41,000  Level Los Angeles Center
09:08PM 34.0000 -115.7706 116° Southeast 536 617 41,000  Level Los Angeles Center
09:09PM 33.9108 -115.5447 115° Southeast 532 612 41,000  Level Los Angeles Center
09:10PM 33.8464 -115.3850 116° Southeast 530 610 41,000  Level Los Angeles Center
09:11PM 33.7825 -115.2256 116° Southeast 529 609 41,000  Level Los Angeles Center
09:12PM 33.7189 -115.0639 115° Southeast 533 613 41,000  Level Los Angeles Center
09:13PM 33.6542 -114.9044 116° Southeast 531 611 41,000  Level Los Angeles Center
09:14PM 33.5922 -114.7417 115° Southeast 537 618 41,000  Level Los Angeles Center
09:15PM 33.5600 -114.5681 103° East 536 617 41,000  Level Los Angeles Center
09:16PM 33.5228 -114.3553 102° East 542 624 41,000  Level Los Angeles Center
09:17PM 33.4942 -114.1856 101° East 545 627 41,000  Level Albuquerque Center
09:18PM 33.4633 -114.0086 102° East 544 626 41,000  Level Albuquerque Center
09:19PM 33.4328 -113.8297 102° East 545 627 41,000  Level Albuquerque Center
09:20PM 33.4017 -113.6528 102° East 545 627 41,000  Level Albuquerque Center
09:21PM 33.3619 -113.4411 103° East 545 627 41,000  Level Albuquerque Center
09:22PM 33.3286 -113.2639 103° East 545 627 41,000  Level Albuquerque Center
09:23PM 33.2961 -113.0878 102° East 543 625 41,000  Level Albuquerque Center
09:24PM 33.2622 -112.9106 103° East 545 627 41,000  Level Albuquerque Center
09:25PM 33.2283 -112.7333 103° East 545 627 41,000  Level Albuquerque Center
09:26PM 33.1964 -112.5678 103° East 545 627 41,000  Level Albuquerque Center
09:27PM 33.1633 -112.3931 103° East 544 626 41,000  Level Albuquerque Center
09:28PM 33.1217 -112.1817 103° East 549 632 41,000  Level Albuquerque Center
09:29PM 33.0869 -112.0058 103° East 549 632 41,000  Level Albuquerque Center
09:30PM 33.0539 -111.8297 103° East 549 632 41,000  Level Albuquerque Center
09:31PM 33.0186 -111.6544 103° East 549 632 41,000  Level Albuquerque Center
09:32PM 32.9833 -111.4783 103° East 549 632 41,000  Level Albuquerque Center
09:33PM 32.9481 -111.3031 103° East 547 629 41,000  Level Albuquerque Center
09:34PM 32.9133 -111.1258 103° East 553 636 41,000  Level Albuquerque Center
09:35PM 32.8686 -110.9147 104° East 552 635 41,000  Level Albuquerque Center
09:36PM 32.8328 -110.7375 103° East 553 636 41,000  Level Albuquerque Center
09:37PM 32.7950 -110.5622 104° East 554 638 41,000  Level Albuquerque Center
09:38PM 32.7589 -110.3858 104° East 555 639 41,000  Level Albuquerque Center
09:39PM 32.7217 -110.2097 104° East 556 640 41,000  Level Albuquerque Center
09:40PM 32.6839 -110.0347 104° East 555 639 41,000  Level Albuquerque Center
09:42PM 32.6458 -109.8594 104° East 555 639 41,000  Level Albuquerque Center
09:43PM 32.5989 -109.6467 105° East 564 649 41,000  Level Albuquerque Center
09:44PM 32.5594 -109.4703 105° East 564 649 41,000  Level Albuquerque Center
09:45PM 32.5206 -109.2953 105° East 561 646 41,000  Level Albuquerque Center
09:46PM 32.4825 -109.1200 104° East 560 644 41,000  Level Albuquerque Center
09:47PM 32.4436 -108.9453 105° East 560 644 41,000 -240 Level Albuquerque Center
09:48PM 32.3958 -108.7367 105° East 558 642 40,600 -660 Descending Albuquerque Center
09:49PM 32.3564 -108.5583 105° East 562 647 39,700 -840 Descending Albuquerque Center
09:50PM 32.3136 -108.3736 105° East 572 658 39,000 -360 Descending Albuquerque Center
09:51PM 32.2717 -108.1906 105° East 578 665 39,000  Level Albuquerque Center
09:52PM 32.2303 -108.0086 105° East 577 664 39,000  Level Albuquerque Center
09:53PM 32.1881 -107.8264 105° East 578 665 39,000  Level Albuquerque Center
09:54PM 32.1450 -107.6433 105° East 582 670 39,000  Level Albuquerque Center
09:55PM 32.0936 -107.4247 105° East 584 672 39,000  Level Albuquerque Center
09:56PM 32.0503 -107.2417 106° East 586 674 39,000  Level Albuquerque Center
09:57PM 32.0075 -107.0603 105° East 584 672 39,000  Level Albuquerque Center
09:58PM 31.9636 -106.8750 106° East 590 679 39,000  Level Albuquerque Center
09:59PM 31.9175 -106.6944 107° East 585 673 39,000  Level Albuquerque Center
10:00PM 31.8700 -106.5003 106° East 588 677 39,000  Level Albuquerque Center
10:01PM 31.8261 -106.3128 105° East 592 681 39,000  Level Albuquerque Center
10:02PM 31.7972 -106.1247 100° East 593 682 39,000  Level Albuquerque Center
10:03PM 31.7739 -105.9356 98° East 586 674 39,000  Level Albuquerque Center
10:04PM 31.7503 -105.7442 98° East 590 679 39,000  Level Albuquerque Center
10:05PM 31.7222 -105.5144 98° East 591 680 39,000  Level Albuquerque Center
10:06PM 31.6994 -105.3211 98° East 596 686 39,000  Level Albuquerque Center
10:07PM 31.6753 -105.1306 98° East 590 679 39,000  Level Albuquerque Center
10:08PM 31.6508 -104.9364 98° East 595 685 39,000  Level Albuquerque Center
10:09PM 31.6264 -104.7433 98° East 595 685 39,000  Level Albuquerque Center
10:10PM 31.6014 -104.5486 99° East 599 689 39,000  Level Albuquerque Center
10:11PM 31.5772 -104.3544 98° East 600 690 39,000  Level Albuquerque Center
10:12PM 31.5517 -104.1633 99° East 594 684 39,000  Level Albuquerque Center
10:13PM 31.5258 -103.9717 99° East 593 682 39,000  Level Albuquerque Center
10:14PM 31.4958 -103.7503 99° East 598 688 39,000  Level Albuquerque Center
10:15PM 31.4686 -103.5572 99° East 601 692 39,000  Level Albuquerque Center
10:16PM 31.4428 -103.3644 99° East 601 692 39,000  Level Albuquerque Center
10:17PM 31.4200 -103.1733 98° East 597 687 39,000  Level Albuquerque Center
10:18PM 31.3958 -102.9811 98° East 598 688 39,000  Level Albuquerque Center
10:19PM 31.3711 -102.7886 99° East 599 689 39,000  Level Albuquerque Center
10:20PM 31.3456 -102.5947 99° East 602 693 39,000  Level Albuquerque Center
10:21PM 31.3161 -102.3664 99° East 624 718 39,000  Level Albuquerque Center
10:22PM 31.2914 -102.1742 99° East 608 700 39,000  Level Albuquerque Center
10:23PM 31.2647 -101.9814 99° East 606 697 39,000  Level Albuquerque Center
10:24PM 31.2406 -101.7944 99° East 604 695 39,000  Level Albuquerque Center
10:26PM 31.1972 -101.4836 99° East 607 699 39,000  Level Houston Center
10:27PM 31.1708 -101.2964 99° East 608 700 39,000  Level Houston Center
10:28PM 31.1375 -101.0631 99° East 607 699 39,000  Level Houston Center
10:29PM 31.1117 -100.8672 99° East 610 702 39,000  Level Houston Center
10:30PM 31.0839 -100.6739 99° East 604 695 39,000  Level Houston Center
10:31PM 31.0561 -100.4817 100° East 601 692 39,000  Level Houston Center
10:32PM 31.0275 -100.2842 100° East 603 694 39,000  Level Houston Center
10:33PM 30.9978 -100.0928 100° East 608 700 39,000  Level Houston Center
10:34PM 30.9683 -99.8986 100° East 607 699 39,000  Level Houston Center
10:35PM 30.9400 -99.7047 100° East 605 696 39,000  Level Houston Center
10:36PM 30.9139 -99.5094 99° East 608 700 39,000  Level Houston Center
10:37PM 30.9083 -99.3111 92° East 611 703 39,000  Level Houston Center
10:38PM 30.9061 -99.1008 91° East 611 703 39,000  Level Houston Center
10:39PM 30.9019 -98.9014 91° East 611 703 39,000  Level Houston Center
10:40PM 30.8981 -98.7011 91° East 613 705 39,000  Level Houston Center
10:41PM 30.8947 -98.5017 91° East 612 704 39,000  Level Houston Center
10:42PM 30.8892 -98.3017 92° East 614 707 39,000  Level Houston Center
10:43PM 30.8844 -98.1011 92° East 614 707 39,000  Level Houston Center
10:44PM 30.8794 -97.9028 92° East 611 703 39,000  Level Houston Center
10:45PM 30.8739 -97.7050 92° East 607 699 39,000  Level Houston Center
10:46PM 30.8678 -97.5111 92° East 600 690 39,000 -300 Level Houston Center
10:47PM 30.8628 -97.3297 92° East 595 685 38,400 -1,200 Descending Houston Center
10:48PM 30.8567 -97.0997 92° East 598 688 36,600 -1,680 Descending Houston Center
10:49PM 30.8492 -96.9086 93° East 579 666 35,100 -2,460 Descending Houston Center
10:50PM 30.8064 -96.7319 106° East 565 650 31,600 -3,660 Descending Houston Center
10:51PM 30.7347 -96.5606 116° Southeast 581 669 27,700 -3,780 Descending Houston Center
10:53PM 30.6656 -96.3883 115° Southeast 583 671 23,900 -3,660 Descending Houston Center
10:54PM 30.6044 -96.2278 114° Southeast 539 620 20,300 -3,420 Descending Houston Center
10:55PM 30.5436 -96.0836 116° Southeast 497 572 17,100 -3,180 Descending Houston Center
10:55PM 30.5200 -96.0272 116° Southeast 460 529 15,800 -3,300 Descending Houston Center
10:55PM 30.4961 -95.9694 116° Southeast 436 502 14,500 -2,640 Descending Houston Center
10:56PM 30.4394 -95.8500 119° Southeast 411 473 12,100 -1,320 Descending Houston Center
10:57PM 30.3636 -95.7500 131° Southeast 360 414 11,800 -900 Descending Houston Center
10:59PM 30.2775 -95.6778 144° Southeast 335 386 10,200 -1,380 Descending Houston Center
11:00PM 30.2083 -95.6086 139° Southeast 329 379 8,900 -1,200 Descending Houston Center
11:01PM 30.1517 -95.5483 137° Southeast 320 368 7,800 -960 Descending Houston Center
11:02PM 30.0961 -95.4772 132° Southeast 306 352 7,000 -420 Descending Houston Center
11:03PM 30.0867 -95.3792 96° East 291 335 7,100 -660 Climbing Houston Center
11:04PM 30.0794 -95.2761 95° East 278 320 5,700 -1,440 Descending Houston Center
11:05PM 30.0553 -95.1969 109° East 276 318 4,100 -1,560 Descending Houston Center
11:06PM 29.9900 -95.1953 179° South 224 258 2,600 -1,380 Descending Houston Center
11:07PM 29.9783 -95.2500 256° West 144 166 1,400 -1,140 Descending Houston Center
11:08PM 29.9778 -95.2886 269° West 136 157 500 -1,020 Descending Houston Center